sensor_id;sensor_type;location;lat;lon;timestamp;pressure;altitude;pressure_sealevel;temperature;humidity
18755;BME280;35061;47.664;9.166;2022-08-18T00:01:22;101358.44;;;18.17;78.05
18755;BME280;35061;47.664;9.166;2022-08-18T00:03:53;101365.79;;;18.18;78.10
18755;BME280;35061;47.664;9.166;2022-08-18T00:06:28;101365.23;;;18.20;78.13
18755;BME280;35061;47.664;9.166;2022-08-18T00:08:57;101355.20;;;18.26;77.67
18755;BME280;35061;47.664;9.166;2022-08-18T00:11:27;101360.23;;;18.20;77.83
18755;BME280;35061;47.664;9.166;2022-08-18T00:14:19;101357.62;;;18.17;77.86
18755;BME280;35061;47.664;9.166;2022-08-18T00:16:51;101353.92;;;18.16;77.86
18755;BME280;35061;47.664;9.166;2022-08-18T00:19:20;101348.43;;;18.12;77.61
18755;BME280;35061;47.664;9.166;2022-08-18T00:22:10;101353.17;;;18.16;77.39
18755;BME280;35061;47.664;9.166;2022-08-18T00:24:48;101352.32;;;18.21;77.32
18755;BME280;35061;47.664;9.166;2022-08-18T00:27:18;101356.34;;;18.12;77.71
18755;BME280;35061;47.664;9.166;2022-08-18T00:29:49;101353.43;;;18.12;77.63
18755;BME280;35061;47.664;9.166;2022-08-18T00:32:23;101352.68;;;18.11;77.47
18755;BME280;35061;47.664;9.166;2022-08-18T00:34:52;101345.26;;;18.10;77.77
18755;BME280;35061;47.664;9.166;2022-08-18T00:37:20;101336.33;;;18.08;77.43
18755;BME280;35061;47.664;9.166;2022-08-18T00:39:52;101332.66;;;18.08;77.43
18755;BME280;35061;47.664;9.166;2022-08-18T00:42:27;101322.40;;;18.07;77.55
18755;BME280;35061;47.664;9.166;2022-08-18T00:45:02;101294.73;;;18.06;77.91
18755;BME280;35061;47.664;9.166;2022-08-18T00:47:30;101292.09;;;18.02;77.75
18755;BME280;35061;47.664;9.166;2022-08-18T00:50:23;101301.08;;;17.98;77.66
18755;BME280;35061;47.664;9.166;2022-08-18T00:53:02;101312.66;;;17.98;77.94
18755;BME280;35061;47.664;9.166;2022-08-18T00:55:32;101311.09;;;17.97;77.92
18755;BME280;35061;47.664;9.166;2022-08-18T00:58:10;101318.97;;;17.97;77.81
18755;BME280;35061;47.664;9.166;2022-08-18T01:00:43;101318.21;;;17.96;78.17
18755;BME280;35061;47.664;9.166;2022-08-18T01:03:14;101317.40;;;17.96;77.91
18755;BME280;35061;47.664;9.166;2022-08-18T01:06:01;101306.60;;;17.96;78.08
18755;BME280;35061;47.664;9.166;2022-08-18T01:08:30;101299.25;;;17.95;78.22
18755;BME280;35061;47.664;9.166;2022-08-18T01:11:00;101298.43;;;17.95;78.07
18755;BME280;35061;47.664;9.166;2022-08-18T01:13:30;101312.39;;;17.96;78.09
18755;BME280;35061;47.664;9.166;2022-08-18T01:15:59;101315.30;;;17.96;78.19
18755;BME280;35061;47.664;9.166;2022-08-18T01:18:47;101298.20;;;17.93;78.22
18755;BME280;35061;47.664;9.166;2022-08-18T01:21:42;101297.16;;;17.90;78.36
18755;BME280;35061;47.664;9.166;2022-08-18T01:24:21;101310.56;;;17.93;78.60
18755;BME280;35061;47.664;9.166;2022-08-18T01:27:12;101312.13;;;17.94;78.32
18755;BME280;35061;47.664;9.166;2022-08-18T01:29:47;101301.87;;;17.93;78.31
18755;BME280;35061;47.664;9.166;2022-08-18T01:32:21;101295.29;;;17.93;78.30
18755;BME280;35061;47.664;9.166;2022-08-18T01:34:50;101316.61;;;17.95;78.55
18755;BME280;35061;47.664;9.166;2022-08-18T01:37:21;101316.09;;;17.97;78.31
18755;BME280;35061;47.664;9.166;2022-08-18T01:39:50;101313.73;;;17.95;78.47
18755;BME280;35061;47.664;9.166;2022-08-18T01:42:38;101315.30;;;17.96;78.52
18755;BME280;35061;47.664;9.166;2022-08-18T01:45:06;101304.25;;;17.95;78.61
18755;BME280;35061;47.664;9.166;2022-08-18T01:47:35;101297.38;;;17.92;78.62
18755;BME280;35061;47.664;9.166;2022-08-18T01:50:23;101283.45;;;17.91;78.78
18755;BME280;35061;47.664;9.166;2022-08-18T01:52:51;101280.84;;;17.87;78.97
18755;BME280;35061;47.664;9.166;2022-08-18T01:55:20;101275.57;;;17.85;79.00
18755;BME280;35061;47.664;9.166;2022-08-18T01:57:48;101277.44;;;17.83;79.17
18755;BME280;35061;47.664;9.166;2022-08-18T02:00:17;101263.73;;;17.83;79.25
18755;BME280;35061;47.664;9.166;2022-08-18T02:02:46;101252.68;;;17.82;79.70
18755;BME280;35061;47.664;9.166;2022-08-18T02:05:35;101264.48;;;17.95;79.36
18755;BME280;35061;47.664;9.166;2022-08-18T02:08:03;101274.46;;;17.94;79.77
18755;BME280;35061;47.664;9.166;2022-08-18T02:10:33;101275.28;;;17.95;79.61
18755;BME280;35061;47.664;9.166;2022-08-18T02:13:01;101273.71;;;17.94;79.63
18755;BME280;35061;47.664;9.166;2022-08-18T02:15:30;101266.58;;;17.95;79.67
18755;BME280;35061;47.664;9.166;2022-08-18T02:17:58;101259.98;;;17.94;79.70
18755;BME280;35061;47.664;9.166;2022-08-18T02:20:26;101256.61;;;17.90;79.67
18755;BME280;35061;47.664;9.166;2022-08-18T02:22:54;101248.92;;;17.98;80.15
18755;BME280;35061;47.664;9.166;2022-08-18T02:25:21;101245.52;;;18.36;79.52
18755;BME280;35061;47.664;9.166;2022-08-18T02:27:49;101238.00;;;18.52;78.64
18755;BME280;35061;47.664;9.166;2022-08-18T02:30:18;101235.16;;;18.47;78.50
18755;BME280;35061;47.664;9.166;2022-08-18T02:32:46;101226.23;;;18.45;78.46
18755;BME280;35061;47.664;9.166;2022-08-18T02:35:14;101220.48;;;18.39;78.46
18755;BME280;35061;47.664;9.166;2022-08-18T02:37:42;101208.27;;;18.46;78.57
18755;BME280;35061;47.664;9.166;2022-08-18T02:40:15;101201.77;;;18.65;78.71
18755;BME280;35061;47.664;9.166;2022-08-18T02:42:44;101203.47;;;18.79;78.26
18755;BME280;35061;47.664;9.166;2022-08-18T02:45:13;101197.75;;;18.99;77.91
18755;BME280;35061;47.664;9.166;2022-08-18T02:47:41;101193.10;;;19.15;77.54
18755;BME280;35061;47.664;9.166;2022-08-18T02:50:11;101201.80;;;19.15;76.63
18755;BME280;35061;47.664;9.166;2022-08-18T02:52:39;101216.45;;;19.03;76.55
18755;BME280;35061;47.664;9.166;2022-08-18T02:55:08;101219.69;;;18.94;76.57
18755;BME280;35061;47.664;9.166;2022-08-18T02:57:41;101227.18;;;18.83;76.69
18755;BME280;35061;47.664;9.166;2022-08-18T03:00:12;101210.95;;;18.69;77.07
18755;BME280;35061;47.664;9.166;2022-08-18T03:02:49;101207.63;;;18.59;77.16
18755;BME280;35061;47.664;9.166;2022-08-18T03:05:18;101200.07;;;18.50;77.21
18755;BME280;35061;47.664;9.166;2022-08-18T03:07:45;101206.45;;;18.43;77.22
18755;BME280;35061;47.664;9.166;2022-08-18T03:10:13;101196.99;;;18.37;77.33
18755;BME280;35061;47.664;9.166;2022-08-18T03:12:59;101202.13;;;18.25;77.66
18755;BME280;35061;47.664;9.166;2022-08-18T03:15:26;101186.63;;;18.17;77.86
18755;BME280;35061;47.664;9.166;2022-08-18T03:17:54;101175.91;;;18.11;78.13
18755;BME280;35061;47.664;9.166;2022-08-18T03:20:22;101167.50;;;18.08;78.47
18755;BME280;35061;47.664;9.166;2022-08-18T03:22:56;101173.77;;;18.12;78.51
18755;BME280;35061;47.664;9.166;2022-08-18T03:25:31;101173.05;;;18.06;78.82
18755;BME280;35061;47.664;9.166;2022-08-18T03:27:59;101179.37;;;18.04;79.02
18755;BME280;35061;47.664;9.166;2022-08-18T03:30:26;101173.02;;;18.00;79.33
18755;BME280;35061;47.664;9.166;2022-08-18T03:32:54;101170.84;;;18.18;79.46
18755;BME280;35061;47.664;9.166;2022-08-18T03:35:22;101175.15;;;18.36;79.35
18755;BME280;35061;47.664;9.166;2022-08-18T03:37:49;101177.70;;;18.45;78.67
18755;BME280;35061;47.664;9.166;2022-08-18T03:40:18;101171.72;;;18.37;78.80
18755;BME280;35061;47.664;9.166;2022-08-18T03:42:46;101171.95;;;18.39;78.67
18755;BME280;35061;47.664;9.166;2022-08-18T03:45:13;101168.94;;;18.51;79.17
18755;BME280;35061;47.664;9.166;2022-08-18T03:47:43;101162.98;;;18.68;78.00
18755;BME280;35061;47.664;9.166;2022-08-18T03:50:12;101173.62;;;18.60;78.14
18755;BME280;35061;47.664;9.166;2022-08-18T03:52:40;101181.82;;;18.55;78.36
18755;BME280;35061;47.664;9.166;2022-08-18T03:55:08;101185.94;;;18.66;77.97
18755;BME280;35061;47.664;9.166;2022-08-18T03:57:36;101188.79;;;18.72;77.69
18755;BME280;35061;47.664;9.166;2022-08-18T04:00:05;101195.49;;;18.61;77.70
18755;BME280;35061;47.664;9.166;2022-08-18T04:02:33;101205.63;;;18.48;77.86
18755;BME280;35061;47.664;9.166;2022-08-18T04:05:01;101195.42;;;18.36;78.23
18755;BME280;35061;47.664;9.166;2022-08-18T04:07:30;101203.17;;;18.27;78.47
18755;BME280;35061;47.664;9.166;2022-08-18T04:09:58;101218.48;;;18.22;78.61
18755;BME280;35061;47.664;9.166;2022-08-18T04:12:26;101227.50;;;18.13;78.80
18755;BME280;35061;47.664;9.166;2022-08-18T04:14:54;101233.88;;;18.06;79.02
18755;BME280;35061;47.664;9.166;2022-08-18T04:17:21;101227.60;;;17.96;79.21
18755;BME280;35061;47.664;9.166;2022-08-18T04:19:53;101237.12;;;17.91;79.58
18755;BME280;35061;47.664;9.166;2022-08-18T04:22:22;101233.45;;;17.84;79.65
18755;BME280;35061;47.664;9.166;2022-08-18T04:24:52;101228.48;;;17.79;79.86
18755;BME280;35061;47.664;9.166;2022-08-18T04:27:21;101228.78;;;17.76;79.88
18755;BME280;35061;47.664;9.166;2022-08-18T04:29:49;101232.48;;;17.70;80.05
18755;BME280;35061;47.664;9.166;2022-08-18T04:32:17;101235.38;;;17.70;80.34
18755;BME280;35061;47.664;9.166;2022-08-18T04:34:45;101234.50;;;17.87;80.28
18755;BME280;35061;47.664;9.166;2022-08-18T04:37:14;101225.57;;;17.85;80.37
18755;BME280;35061;47.664;9.166;2022-08-18T04:39:43;101220.70;;;18.05;80.45
18755;BME280;35061;47.664;9.166;2022-08-18T04:42:11;101218.09;;;18.01;80.04
18755;BME280;35061;47.664;9.166;2022-08-18T04:44:38;101217.59;;;17.91;80.16
18755;BME280;35061;47.664;9.166;2022-08-18T04:47:07;101212.88;;;17.88;80.34
18755;BME280;35061;47.664;9.166;2022-08-18T04:49:35;101206.58;;;17.84;80.57
18755;BME280;35061;47.664;9.166;2022-08-18T04:52:04;101188.20;;;17.81;80.67
18755;BME280;35061;47.664;9.166;2022-08-18T04:55:06;101192.68;;;17.77;80.96
18755;BME280;35061;47.664;9.166;2022-08-18T04:57:35;101187.71;;;17.71;81.42
18755;BME280;35061;47.664;9.166;2022-08-18T05:00:04;101180.91;;;17.69;81.61
18755;BME280;35061;47.664;9.166;2022-08-18T05:02:32;101179.86;;;17.66;82.04
18755;BME280;35061;47.664;9.166;2022-08-18T05:05:00;101180.12;;;17.63;82.24
18755;BME280;35061;47.664;9.166;2022-08-18T05:07:30;101168.55;;;17.63;82.37
18755;BME280;35061;47.664;9.166;2022-08-18T05:09:58;101150.37;;;17.62;82.41
18755;BME280;35061;47.664;9.166;2022-08-18T05:12:26;101139.34;;;17.61;82.69
18755;BME280;35061;47.664;9.166;2022-08-18T05:14:55;101115.93;;;17.58;82.96
18755;BME280;35061;47.664;9.166;2022-08-18T05:17:23;101108.28;;;17.61;83.23
18755;BME280;35061;47.664;9.166;2022-08-18T05:19:59;101087.71;;;17.65;83.85
18755;BME280;35061;47.664;9.166;2022-08-18T05:22:29;101061.13;;;17.97;82.72
18755;BME280;35061;47.664;9.166;2022-08-18T05:24:58;101037.48;;;17.93;82.63
18755;BME280;35061;47.664;9.166;2022-08-18T05:27:31;101015.05;;;17.93;83.17
18755;BME280;35061;47.664;9.166;2022-08-18T05:30:00;101036.80;;;18.36;82.61
18755;BME280;35061;47.664;9.166;2022-08-18T05:32:32;101095.66;;;18.75;81.31
18755;BME280;35061;47.664;9.166;2022-08-18T05:35:19;101125.41;;;18.81;80.44
18755;BME280;35061;47.664;9.166;2022-08-18T05:40:30;101181.79;;;19.11;79.63
18755;BME280;35061;47.664;9.166;2022-08-18T05:42:58;101213.54;;;19.03;79.38
18755;BME280;35061;47.664;9.166;2022-08-18T05:45:26;101231.59;;;18.90;79.68
18755;BME280;35061;47.664;9.166;2022-08-18T05:47:58;101239.30;;;18.82;79.86
18755;BME280;35061;47.664;9.166;2022-08-18T05:50:27;101234.89;;;18.75;80.15
18755;BME280;35061;47.664;9.166;2022-08-18T05:53:00;101229.50;;;18.60;80.55
18755;BME280;35061;47.664;9.166;2022-08-18T05:55:52;101205.95;;;18.39;81.62
18755;BME280;35061;47.664;9.166;2022-08-18T05:58:48;101205.04;;;18.25;81.68
18755;BME280;35061;47.664;9.166;2022-08-18T06:01:21;101240.65;;;18.50;81.15
18755;BME280;35061;47.664;9.166;2022-08-18T06:03:57;101260.95;;;18.50;81.24
18755;BME280;35061;47.664;9.166;2022-08-18T06:06:29;101258.60;;;18.49;81.61
18755;BME280;35061;47.664;9.166;2022-08-18T06:09:31;101260.50;;;18.40;81.24
18755;BME280;35061;47.664;9.166;2022-08-18T06:12:18;101263.21;;;18.33;82.15
18755;BME280;35061;47.664;9.166;2022-08-18T06:14:49;101271.84;;;18.38;81.62
18755;BME280;35061;47.664;9.166;2022-08-18T06:20:14;101279.17;;;18.45;81.27
18755;BME280;35061;47.664;9.166;2022-08-18T06:25:48;101266.77;;;18.50;80.91
18755;BME280;35061;47.664;9.166;2022-08-18T06:28:21;101275.70;;;18.52;80.74
18755;BME280;35061;47.664;9.166;2022-08-18T06:31:06;101266.77;;;18.50;80.58
18755;BME280;35061;47.664;9.166;2022-08-18T06:41:57;101255.16;;;18.50;80.27
18755;BME280;35061;47.664;9.166;2022-08-18T06:44:38;101255.66;;;18.54;80.31
18755;BME280;35061;47.664;9.166;2022-08-18T06:47:13;101280.22;;;18.48;80.18
18755;BME280;35061;47.664;9.166;2022-08-18T06:49:58;101284.96;;;18.45;80.64
18755;BME280;35061;47.664;9.166;2022-08-18T06:55:05;101266.77;;;18.50;80.61
18755;BME280;35061;47.664;9.166;2022-08-18T06:57:36;101249.12;;;18.48;81.13
18755;BME280;35061;47.664;9.166;2022-08-18T07:00:28;101245.91;;;18.52;81.16
18755;BME280;35061;47.664;9.166;2022-08-18T07:03:05;101242.41;;;18.59;81.36
18755;BME280;35061;47.664;9.166;2022-08-18T07:05:35;101236.34;;;18.63;81.86
18755;BME280;35061;47.664;9.166;2022-08-18T07:08:10;101252.12;;;18.67;81.50
18755;BME280;35061;47.664;9.166;2022-08-18T07:10:46;101263.15;;;18.69;81.64
18755;BME280;35061;47.664;9.166;2022-08-18T07:13:26;101258.41;;;18.72;81.82
18755;BME280;35061;47.664;9.166;2022-08-18T07:16:25;101253.14;;;18.70;81.11
18755;BME280;35061;47.664;9.166;2022-08-18T07:19:19;101242.84;;;18.75;81.24
18755;BME280;35061;47.664;9.166;2022-08-18T07:22:07;101239.60;;;18.78;80.88
18755;BME280;35061;47.664;9.166;2022-08-18T07:24:44;101232.67;;;18.87;80.55
18755;BME280;35061;47.664;9.166;2022-08-18T07:27:17;101240.52;;;18.92;80.28
18755;BME280;35061;47.664;9.166;2022-08-18T07:30:06;101233.62;;;19.01;79.81
18755;BME280;35061;47.664;9.166;2022-08-18T07:32:47;101237.48;;;19.09;79.32
18755;BME280;35061;47.664;9.166;2022-08-18T07:35:23;101248.73;;;19.19;78.81
18755;BME280;35061;47.664;9.166;2022-08-18T07:37:59;101258.93;;;19.25;78.84
18755;BME280;35061;47.664;9.166;2022-08-18T07:43:59;101261.15;;;19.38;78.99
18755;BME280;35061;47.664;9.166;2022-08-18T07:46:32;101261.38;;;19.41;78.87
18755;BME280;35061;47.664;9.166;2022-08-18T07:49:02;101268.25;;;19.43;78.80
18755;BME280;35061;47.664;9.166;2022-08-18T07:51:53;101267.43;;;19.43;78.62
18755;BME280;35061;47.664;9.166;2022-08-18T07:54:53;101269.26;;;19.46;78.08
18755;BME280;35061;47.664;9.166;2022-08-18T08:06:23;101259.68;;;19.51;77.57
18755;BME280;35061;47.664;9.166;2022-08-18T08:11:56;101261.48;;;19.54;77.67
18755;BME280;35061;47.664;9.166;2022-08-18T08:22:28;101221.16;;;19.70;76.91
18755;BME280;35061;47.664;9.166;2022-08-18T08:25:05;101217.37;;;19.75;76.95
18755;BME280;35061;47.664;9.166;2022-08-18T08:30:33;101197.68;;;19.87;76.01
18755;BME280;35061;47.664;9.166;2022-08-18T08:35:57;101194.54;;;20.04;75.48
18755;BME280;35061;47.664;9.166;2022-08-18T08:43:53;101186.43;;;20.16;74.83
18755;BME280;35061;47.664;9.166;2022-08-18T08:46:28;101199.55;;;20.22;74.54
18755;BME280;35061;47.664;9.166;2022-08-18T08:51:59;101219.69;;;20.34;73.07
18755;BME280;35061;47.664;9.166;2022-08-18T08:54:58;101232.12;;;20.34;72.88
18755;BME280;35061;47.664;9.166;2022-08-18T08:57:30;101247.02;;;20.44;73.27
18755;BME280;35061;47.664;9.166;2022-08-18T09:00:01;101251.18;;;20.49;73.06
18755;BME280;35061;47.664;9.166;2022-08-18T09:03:01;101257.45;;;20.53;73.03
18755;BME280;35061;47.664;9.166;2022-08-18T09:05:48;101247.74;;;20.64;73.03
18755;BME280;35061;47.664;9.166;2022-08-18T09:17:12;101221.55;;;21.24;71.90
18755;BME280;35061;47.664;9.166;2022-08-18T09:22:48;101221.06;;;21.46;71.07
18755;BME280;35061;47.664;9.166;2022-08-18T09:42:30;101218.12;;;22.08;68.76
18755;BME280;35061;47.664;9.166;2022-08-18T10:10:27;101156.45;;;22.47;67.61
18755;BME280;35061;47.664;9.166;2022-08-18T10:16:30;101143.59;;;22.63;66.82
18755;BME280;35061;47.664;9.166;2022-08-18T10:22:41;101130.45;;;22.78;66.27
18755;BME280;35061;47.664;9.166;2022-08-18T10:25:10;101119.76;;;22.80;65.96
18755;BME280;35061;47.664;9.166;2022-08-18T10:28:00;101125.80;;;22.82;65.90
18755;BME280;35061;47.664;9.166;2022-08-18T10:36:40;101116.48;;;22.84;64.53
18755;BME280;35061;47.664;9.166;2022-08-18T10:39:18;101119.43;;;22.92;64.26
18755;BME280;35061;47.664;9.166;2022-08-18T10:42:13;101124.86;;;22.87;64.38
18755;BME280;35061;47.664;9.166;2022-08-18T10:44:47;101116.88;;;22.88;64.69
18755;BME280;35061;47.664;9.166;2022-08-18T10:47:23;101112.40;;;22.87;64.91
18755;BME280;35061;47.664;9.166;2022-08-18T10:50:03;101120.38;;;22.86;64.70
18755;BME280;35061;47.664;9.166;2022-08-18T10:55:45;101117.44;;;22.86;64.65
18755;BME280;35061;47.664;9.166;2022-08-18T11:04:03;101089.05;;;22.87;64.79
18755;BME280;35061;47.664;9.166;2022-08-18T11:06:43;101086.14;;;22.87;65.11
18755;BME280;35061;47.664;9.166;2022-08-18T11:09:27;101075.38;;;22.82;65.20
18755;BME280;35061;47.664;9.166;2022-08-18T11:12:00;101062.73;;;22.79;64.92
18755;BME280;35061;47.664;9.166;2022-08-18T11:14:57;101052.27;;;22.84;64.88
18755;BME280;35061;47.664;9.166;2022-08-18T11:20:43;101048.93;;;22.87;64.20
18755;BME280;35061;47.664;9.166;2022-08-18T11:23:15;101064.36;;;22.96;64.31
18755;BME280;35061;47.664;9.166;2022-08-18T11:25:43;101057.17;;;22.97;64.05
18755;BME280;35061;47.664;9.166;2022-08-18T11:28:20;101058.34;;;23.02;63.97
18755;BME280;35061;47.664;9.166;2022-08-18T11:30:55;101044.12;;;22.98;63.74
18755;BME280;35061;47.664;9.166;2022-08-18T11:33:25;101050.20;;;23.00;63.70
18755;BME280;35061;47.664;9.166;2022-08-18T11:35:58;101047.45;;;23.02;63.57
18755;BME280;35061;47.664;9.166;2022-08-18T11:38:28;101053.90;;;23.08;63.46
18755;BME280;35061;47.664;9.166;2022-08-18T11:41:17;101050.04;;;23.13;63.18
18755;BME280;35061;47.664;9.166;2022-08-18T11:43:46;101055.70;;;23.19;62.58
18755;BME280;35061;47.664;9.166;2022-08-18T11:48:58;101071.33;;;23.30;62.74
18755;BME280;35061;47.664;9.166;2022-08-18T11:51:30;101063.16;;;23.36;62.59
18755;BME280;35061;47.664;9.166;2022-08-18T11:54:19;101049.98;;;23.42;62.28
18755;BME280;35061;47.664;9.166;2022-08-18T11:56:49;101037.91;;;23.54;61.65
18755;BME280;35061;47.664;9.166;2022-08-18T12:02:19;101037.52;;;23.73;61.40
18755;BME280;35061;47.664;9.166;2022-08-18T12:04:53;101035.00;;;23.77;60.75
18755;BME280;35061;47.664;9.166;2022-08-18T12:07:49;101042.20;;;23.84;60.59
18755;BME280;35061;47.664;9.166;2022-08-18T12:10:26;101029.93;;;23.86;60.02
18755;BME280;35061;47.664;9.166;2022-08-18T12:12:56;101032.09;;;23.85;59.65
18755;BME280;35061;47.664;9.166;2022-08-18T12:15:34;101030.32;;;23.90;59.23
18755;BME280;35061;47.664;9.166;2022-08-18T12:18:14;101029.54;;;23.97;58.89
18755;BME280;35061;47.664;9.166;2022-08-18T12:20:57;101027.77;;;24.02;58.83
18755;BME280;35061;47.664;9.166;2022-08-18T12:23:29;101019.04;;;24.09;58.87
18755;BME280;35061;47.664;9.166;2022-08-18T12:26:04;101004.81;;;24.14;58.89
18755;BME280;35061;47.664;9.166;2022-08-18T12:28:52;101012.99;;;24.23;58.94
18755;BME280;35061;47.664;9.166;2022-08-18T12:31:26;101023.09;;;24.30;58.75
18755;BME280;35061;47.664;9.166;2022-08-18T12:34:17;101033.04;;;24.27;58.44
18755;BME280;35061;47.664;9.166;2022-08-18T12:36:55;101028.20;;;24.21;58.16
18755;BME280;35061;47.664;9.166;2022-08-18T12:39:23;101024.27;;;24.19;57.96
18755;BME280;35061;47.664;9.166;2022-08-18T12:41:51;101021.55;;;24.21;58.25
18755;BME280;35061;47.664;9.166;2022-08-18T12:44:19;101005.77;;;24.24;58.40
18755;BME280;35061;47.664;9.166;2022-08-18T12:46:47;100998.73;;;24.27;58.31
18755;BME280;35061;47.664;9.166;2022-08-18T12:49:21;100997.16;;;24.26;58.14
18755;BME280;35061;47.664;9.166;2022-08-18T12:51:52;100987.02;;;24.27;57.75
18755;BME280;35061;47.664;9.166;2022-08-18T12:54:23;100988.40;;;24.26;57.69
18755;BME280;35061;47.664;9.166;2022-08-18T12:56:54;100977.45;;;24.27;57.33
18755;BME280;35061;47.664;9.166;2022-08-18T12:59:24;100981.92;;;24.35;57.13
18755;BME280;35061;47.664;9.166;2022-08-18T13:01:57;100979.57;;;24.42;56.85
18755;BME280;35061;47.664;9.166;2022-08-18T13:04:26;100979.77;;;24.44;57.13
18755;BME280;35061;47.664;9.166;2022-08-18T13:06:57;100972.34;;;24.50;57.38
18755;BME280;35061;47.664;9.166;2022-08-18T13:09:33;100966.10;;;24.54;56.42
18755;BME280;35061;47.664;9.166;2022-08-18T13:12:20;100969.59;;;24.52;56.65
18755;BME280;35061;47.664;9.166;2022-08-18T13:14:49;100966.82;;;24.62;56.73
18755;BME280;35061;47.664;9.166;2022-08-18T13:17:18;100971.56;;;24.50;56.13
18755;BME280;35061;47.664;9.166;2022-08-18T13:20:11;100985.20;;;24.47;56.10
18755;BME280;35061;47.664;9.166;2022-08-18T13:22:40;100980.78;;;24.31;55.20
18755;BME280;35061;47.664;9.166;2022-08-18T13:25:12;100986.05;;;24.24;56.25
18755;BME280;35061;47.664;9.166;2022-08-18T13:28:00;100982.19;;;24.22;56.34
18755;BME280;35061;47.664;9.166;2022-08-18T13:30:28;100982.74;;;24.20;56.37
18755;BME280;35061;47.664;9.166;2022-08-18T13:32:59;100978.49;;;24.14;56.61
18755;BME280;35061;47.664;9.166;2022-08-18T13:35:47;100988.40;;;24.10;57.00
18755;BME280;35061;47.664;9.166;2022-08-18T13:38:21;100984.15;;;24.11;57.48
18755;BME280;35061;47.664;9.166;2022-08-18T13:40:55;100992.72;;;24.09;57.66
18755;BME280;35061;47.664;9.166;2022-08-18T13:43:33;100990.95;;;24.06;57.68
18755;BME280;35061;47.664;9.166;2022-08-18T13:46:05;100991.93;;;24.09;57.65
18755;BME280;35061;47.664;9.166;2022-08-18T13:48:35;100988.04;;;24.06;57.73
18755;BME280;35061;47.664;9.166;2022-08-18T13:51:08;100989.19;;;24.03;57.96
18755;BME280;35061;47.664;9.166;2022-08-18T13:53:38;100982.94;;;23.99;57.98
18755;BME280;35061;47.664;9.166;2022-08-18T13:56:24;100989.97;;;23.96;58.12
18755;BME280;35061;47.664;9.166;2022-08-18T13:58:57;100993.89;;;23.91;58.33
18755;BME280;35061;47.664;9.166;2022-08-18T14:01:24;100989.19;;;23.80;58.32
18755;BME280;35061;47.664;9.166;2022-08-18T14:04:14;100979.44;;;23.77;58.68
18755;BME280;35061;47.664;9.166;2022-08-18T14:06:46;101004.81;;;23.75;59.03
18755;BME280;35061;47.664;9.166;2022-08-18T14:09:24;100995.82;;;23.73;59.32
18755;BME280;35061;47.664;9.166;2022-08-18T14:12:07;100996.80;;;23.67;59.52
18755;BME280;35061;47.664;9.166;2022-08-18T14:14:49;100994.25;;;23.64;59.46
18755;BME280;35061;47.664;9.166;2022-08-18T14:17:19;100998.38;;;23.61;59.44
18755;BME280;35061;47.664;9.166;2022-08-18T14:19:49;101001.68;;;23.57;59.49
18755;BME280;35061;47.664;9.166;2022-08-18T14:22:49;100997.00;;;23.54;59.57
18755;BME280;35061;47.664;9.166;2022-08-18T14:25:36;101009.06;;;23.50;59.49
18755;BME280;35061;47.664;9.166;2022-08-18T14:28:25;101011.59;;;23.46;59.72
18755;BME280;35061;47.664;9.166;2022-08-18T14:30:55;101003.21;;;23.42;59.82
18755;BME280;35061;47.664;9.166;2022-08-18T14:33:27;101002.23;;;23.40;59.59
18755;BME280;35061;47.664;9.166;2022-08-18T14:36:15;101003.18;;;23.35;59.81
18755;BME280;35061;47.664;9.166;2022-08-18T14:38:43;101008.64;;;23.31;59.89
18755;BME280;35061;47.664;9.166;2022-08-18T14:41:17;101004.72;;;23.28;60.04
18755;BME280;35061;47.664;9.166;2022-08-18T14:43:50;101005.66;;;23.23;60.07
18755;BME280;35061;47.664;9.166;2022-08-18T14:46:39;101014.01;;;23.19;59.88
18755;BME280;35061;47.664;9.166;2022-08-18T14:49:17;101009.72;;;23.12;59.87
18755;BME280;35061;47.664;9.166;2022-08-18T14:51:59;101010.90;;;23.09;59.99
18755;BME280;35061;47.664;9.166;2022-08-18T14:54:30;101012.04;;;23.06;60.25
18755;BME280;35061;47.664;9.166;2022-08-18T14:56:59;101008.31;;;22.97;60.88
18755;BME280;35061;47.664;9.166;2022-08-18T14:59:34;101004.59;;;22.89;60.74
18755;BME280;35061;47.664;9.166;2022-08-18T15:02:05;101010.05;;;22.85;60.91
18755;BME280;35061;47.664;9.166;2022-08-18T15:04:38;101003.02;;;22.80;61.05
18755;BME280;35061;47.664;9.166;2022-08-18T15:07:23;101011.32;;;22.76;61.24
18755;BME280;35061;47.664;9.166;2022-08-18T15:09:51;101021.07;;;22.71;61.47
18755;BME280;35061;47.664;9.166;2022-08-18T15:12:39;101025.91;;;22.68;61.82
18755;BME280;35061;47.664;9.166;2022-08-18T15:15:10;101020.22;;;22.63;62.10
18755;BME280;35061;47.664;9.166;2022-08-18T15:17:44;101030.16;;;22.60;62.09
18755;BME280;35061;47.664;9.166;2022-08-18T15:20:19;101031.27;;;22.56;62.70
18755;BME280;35061;47.664;9.166;2022-08-18T15:22:54;101034.34;;;22.51;62.49
18755;BME280;35061;47.664;9.166;2022-08-18T15:25:53;101028.10;;;22.47;62.58
18755;BME280;35061;47.664;9.166;2022-08-18T15:28:23;101036.63;;;22.44;62.51
18755;BME280;35061;47.664;9.166;2022-08-18T15:30:52;101041.47;;;22.42;62.60
18755;BME280;35061;47.664;9.166;2022-08-18T15:33:40;101040.63;;;22.34;62.79
18755;BME280;35061;47.664;9.166;2022-08-18T15:36:15;101037.71;;;22.34;62.78
18755;BME280;35061;47.664;9.166;2022-08-18T15:38:54;101040.42;;;22.31;63.04
18755;BME280;35061;47.664;9.166;2022-08-18T15:41:38;101040.59;;;22.26;63.34
18755;BME280;35061;47.664;9.166;2022-08-18T15:44:09;101037.25;;;22.22;63.84
18755;BME280;35061;47.664;9.166;2022-08-18T15:46:37;101041.31;;;22.19;64.56
18755;BME280;35061;47.664;9.166;2022-08-18T15:49:05;101047.29;;;22.13;64.67
18755;BME280;35061;47.664;9.166;2022-08-18T15:51:41;101038.14;;;22.09;64.68